Time;durP1;ratioP1;P1;durP2;ratioP2;P2;SDS_P1;SDS_P2;PMS_P1;PMS_P2;Temp;Humidity;BMP_temperature;BMP_pressure;BME280_temperature;BME280_humidity;BME280_pressure;Samples;Min_cycle;Max_cycle;Signal;HPM_P1;HPM_P2
2023/12/29 00:02:05;;;;;;;5.68;1.38;;;;;;;;;;5111579;28;20452;-60
2023/12/29 00:04:30;;;;;;;4.13;1.33;;;;;;;;;;5097437;28;20032;-61
2023/12/29 00:06:56;;;;;;;10.30;2.33;;;;;;;;;;5094700;28;20024;-61
2023/12/29 00:09:21;;;;;;;7.20;1.67;;;;;;;;;;5107410;28;20451;-61
2023/12/29 00:11:51;;;;;;;4.72;1.35;;;;;;;;;;5108559;28;20085;-62
2023/12/29 00:14:16;;;;;;;6.88;1.58;;;;;;;;;;5111192;28;20365;-61
2023/12/29 00:16:43;;;;;;;4.10;1.60;;;;;;;;;;5111535;28;20043;-61
2023/12/29 00:19:09;;;;;;;4.57;1.70;;;;;;;;;;5110035;28;20036;-60
2023/12/29 00:21:36;;;;;;;7.50;1.70;;;;;;;;;;5106670;28;20040;-59
2023/12/29 00:24:01;;;;;;;7.47;1.70;;;;;;;;;;5109683;28;20031;-61
2023/12/29 00:26:27;;;;;;;4.28;1.85;;;;;;;;;;5100142;28;20752;-61
2023/12/29 00:28:54;;;;;;;2.30;1.20;;;;;;;;;;5107557;28;20515;-61
2023/12/29 00:31:19;;;;;;;6.50;1.40;;;;;;;;;;5109242;28;20391;-60
2023/12/29 00:33:45;;;;;;;5.40;1.70;;;;;;;;;;5111412;28;20028;-60
2023/12/29 00:36:17;;;;;;;5.40;2.03;;;;;;;;;;5105826;28;20040;-61
2023/12/29 00:38:42;;;;;;;6.40;1.70;;;;;;;;;;5099204;28;20036;-61
2023/12/29 00:41:08;;;;;;;6.78;1.65;;;;;;;;;;5106659;28;20096;-60
2023/12/29 00:43:34;;;;;;;7.85;1.60;;;;;;;;;;5111205;28;20037;-61
2023/12/29 00:46:06;;;;;;;5.97;1.88;;;;;;;;;;5108630;28;20128;-62
2023/12/29 00:48:32;;;;;;;6.35;1.73;;;;;;;;;;5093256;28;20039;-61
2023/12/29 00:50:57;;;;;;;3.17;1.33;;;;;;;;;;5101754;28;20036;-60
2023/12/29 00:53:23;;;;;;;5.57;1.50;;;;;;;;;;5108040;28;20429;-61
2023/12/29 00:55:48;;;;;;;5.68;1.58;;;;;;;;;;5110174;28;20031;-60
2023/12/29 00:58:14;;;;;;;4.32;1.23;;;;;;;;;;5099213;28;20604;-61
2023/12/29 01:00:39;;;;;;;3.17;1.20;;;;;;;;;;5106268;28;20472;-60
2023/12/29 01:03:05;;;;;;;6.60;1.50;;;;;;;;;;5109009;28;20099;-61
2023/12/29 01:05:30;;;;;;;4.10;1.45;;;;;;;;;;5100288;28;20031;-60
2023/12/29 01:07:55;;;;;;;2.75;1.17;;;;;;;;;;5104229;28;20382;-61
2023/12/29 01:10:21;;;;;;;3.78;1.50;;;;;;;;;;5104354;28;20030;-61
2023/12/29 01:12:47;;;;;;;3.75;1.35;;;;;;;;;;5101047;28;20038;-61
2023/12/29 01:15:13;;;;;;;4.60;1.52;;;;;;;;;;5099582;28;20077;-61
2023/12/29 01:17:38;;;;;;;3.40;1.35;;;;;;;;;;5100767;28;20096;-60
2023/12/29 01:20:04;;;;;;;2.28;1.15;;;;;;;;;;5101393;28;20039;-60
2023/12/29 01:22:30;;;;;;;6.93;1.55;;;;;;;;;;5100118;28;21830;-61
2023/12/29 01:24:55;;;;;;;3.03;1.30;;;;;;;;;;5100540;28;20051;-61
2023/12/29 01:27:21;;;;;;;7.18;1.60;;;;;;;;;;5100362;28;20031;-61
2023/12/29 01:29:46;;;;;;;5.78;1.52;;;;;;;;;;5099941;28;20608;-60
2023/12/29 01:32:12;;;;;;;4.53;1.55;;;;;;;;;;5102148;28;20059;-61
2023/12/29 01:34:37;;;;;;;3.53;1.60;;;;;;;;;;5099366;28;21258;-60
2023/12/29 01:37:03;;;;;;;6.20;1.33;;;;;;;;;;5101629;28;20020;-60
2023/12/29 01:39:29;;;;;;;4.18;1.40;;;;;;;;;;5101152;28;20040;-61
2023/12/29 01:41:55;;;;;;;5.18;1.40;;;;;;;;;;5100185;28;20092;-61
2023/12/29 01:44:22;;;;;;;5.13;1.60;;;;;;;;;;5099811;28;20425;-61
2023/12/29 01:46:53;;;;;;;6.57;1.60;;;;;;;;;;5100445;28;20039;-61
2023/12/29 01:49:19;;;;;;;8.57;1.92;;;;;;;;;;5098451;28;20050;-61
2023/12/29 01:51:52;;;;;;;6.60;1.70;;;;;;;;;;5099263;28;20027;-61
2023/12/29 01:54:19;;;;;;;5.20;1.70;;;;;;;;;;5098484;28;20126;-61
2023/12/29 01:56:45;;;;;;;6.20;1.50;;;;;;;;;;5100546;28;20038;-60
2023/12/29 01:59:10;;;;;;;4.28;1.33;;;;;;;;;;5101858;28;20043;-60
2023/12/29 02:01:38;;;;;;;4.88;2.17;;;;;;;;;;5102596;28;20027;-61
2023/12/29 02:04:05;;;;;;;4.50;1.55;;;;;;;;;;5101036;28;20507;-55
2023/12/29 02:06:31;;;;;;;6.95;1.52;;;;;;;;;;5100844;28;20154;-59
2023/12/29 02:08:58;;;;;;;3.15;1.70;;;;;;;;;;5104532;28;20031;-61
2023/12/29 02:11:24;;;;;;;4.25;1.45;;;;;;;;;;5098350;28;20713;-61
2023/12/29 02:13:50;;;;;;;8.45;1.58;;;;;;;;;;5101235;28;20110;-60
2023/12/29 02:16:40;;;;;;;4.55;1.50;;;;;;;;;;5099345;28;20059;-60
2023/12/29 02:19:20;;;;;;;5.07;1.60;;;;;;;;;;5100201;28;20465;-60
2023/12/29 02:21:45;;;;;;;7.00;1.77;;;;;;;;;;5100046;28;20526;-60
2023/12/29 02:24:11;;;;;;;6.07;1.60;;;;;;;;;;5099880;28;20284;-61
2023/12/29 02:26:36;;;;;;;8.00;2.00;;;;;;;;;;5100264;28;20387;-61
2023/12/29 02:29:08;;;;;;;4.32;1.83;;;;;;;;;;5100003;28;20028;-61
2023/12/29 02:31:37;;;;;;;4.55;1.75;;;;;;;;;;5101459;28;20123;-61
2023/12/29 02:34:06;;;;;;;8.82;2.35;;;;;;;;;;5101064;28;20065;-61
2023/12/29 02:36:32;;;;;;;5.47;2.13;;;;;;;;;;5100562;28;20028;-61
2023/12/29 02:38:58;;;;;;;10.82;2.28;;;;;;;;;;5099350;28;20048;-61
2023/12/29 02:41:24;;;;;;;8.70;2.20;;;;;;;;;;5103283;28;20687;-61
2023/12/29 02:43:50;;;;;;;7.63;2.42;;;;;;;;;;5108980;28;20036;-61
2023/12/29 02:46:15;;;;;;;7.22;2.20;;;;;;;;;;5105158;28;20054;-61
2023/12/29 02:48:40;;;;;;;6.60;1.90;;;;;;;;;;5104419;28;20026;-61
2023/12/29 02:51:08;;;;;;;6.30;1.95;;;;;;;;;;5103018;28;20422;-61
2023/12/29 02:53:33;;;;;;;8.18;2.17;;;;;;;;;;5103821;28;20058;-61
2023/12/29 02:55:59;;;;;;;6.85;2.20;;;;;;;;;;5103558;28;20038;-61
2023/12/29 02:58:24;;;;;;;10.27;2.45;;;;;;;;;;5102818;28;20209;-61
2023/12/29 03:00:49;;;;;;;10.05;2.50;;;;;;;;;;5105056;28;20039;-61
2023/12/29 03:03:15;;;;;;;7.32;2.67;;;;;;;;;;5104261;28;20460;-61
2023/12/29 03:05:40;;;;;;;7.53;2.65;;;;;;;;;;5102951;28;20020;-61
2023/12/29 03:08:06;;;;;;;7.55;2.25;;;;;;;;;;5112059;28;20079;-61
2023/12/29 03:10:31;;;;;;;8.13;2.47;;;;;;;;;;5114172;28;20030;-63
2023/12/29 03:12:56;;;;;;;5.57;2.08;;;;;;;;;;5114971;28;20043;-63
2023/12/29 03:15:22;;;;;;;6.93;1.98;;;;;;;;;;5113976;28;20361;-63
2023/12/29 03:17:47;;;;;;;7.15;2.08;;;;;;;;;;5114715;28;20030;-62
2023/12/29 03:20:13;;;;;;;7.95;2.67;;;;;;;;;;5113745;28;20036;-62
2023/12/29 03:22:38;;;;;;;5.78;2.03;;;;;;;;;;5115025;28;20502;-62
2023/12/29 03:25:04;;;;;;;9.40;2.15;;;;;;;;;;5112111;28;20447;-61
2023/12/29 03:27:29;;;;;;;5.40;2.00;;;;;;;;;;5097927;28;20088;-61
2023/12/29 03:29:55;;;;;;;6.90;2.13;;;;;;;;;;5113688;28;20421;-61
2023/12/29 03:32:20;;;;;;;11.00;2.40;;;;;;;;;;5095514;28;20060;-61
2023/12/29 03:34:46;;;;;;;9.65;2.58;;;;;;;;;;5112874;28;20031;-61
2023/12/29 03:37:11;;;;;;;6.78;2.03;;;;;;;;;;5113306;28;20430;-61
2023/12/29 03:39:36;;;;;;;9.25;2.65;;;;;;;;;;5114132;28;20035;-60
2023/12/29 03:42:02;;;;;;;5.20;1.70;;;;;;;;;;5098958;28;20036;-60
2023/12/29 03:44:28;;;;;;;7.38;2.13;;;;;;;;;;5096139;28;20038;-60
2023/12/29 03:46:53;;;;;;;7.63;1.85;;;;;;;;;;5112685;28;20024;-60
2023/12/29 03:49:19;;;;;;;6.25;1.90;;;;;;;;;;5110083;28;20084;-59
2023/12/29 03:51:46;;;;;;;4.82;2.15;;;;;;;;;;5111494;28;20468;-59
2023/12/29 03:54:11;;;;;;;6.20;2.10;;;;;;;;;;5111985;28;20050;-58
2023/12/29 03:56:36;;;;;;;9.68;2.53;;;;;;;;;;5109061;28;20024;-58
2023/12/29 03:59:02;;;;;;;10.23;2.55;;;;;;;;;;5092243;28;20027;-58
2023/12/29 04:01:27;;;;;;;8.38;1.73;;;;;;;;;;5108752;28;20551;-56
2023/12/29 04:03:53;;;;;;;7.93;2.13;;;;;;;;;;5113702;28;20035;-55
2023/12/29 04:06:18;;;;;;;6.93;2.40;;;;;;;;;;5111819;28;20035;-55
2023/12/29 04:08:44;;;;;;;9.40;3.08;;;;;;;;;;5111326;28;20080;-58
2023/12/29 04:11:09;;;;;;;6.43;2.30;;;;;;;;;;5105121;28;20020;-51
2023/12/29 04:13:35;;;;;;;3.97;1.92;;;;;;;;;;5099740;28;20132;-54
2023/12/29 04:16:01;;;;;;;3.80;1.88;;;;;;;;;;5113006;28;20028;-57
2023/12/29 04:18:26;;;;;;;9.15;2.03;;;;;;;;;;5109224;28;20028;-58
2023/12/29 04:20:52;;;;;;;5.78;1.85;;;;;;;;;;5111476;28;20100;-57
2023/12/29 04:23:17;;;;;;;9.93;2.42;;;;;;;;;;5110207;28;20028;-58
2023/12/29 04:25:43;;;;;;;5.10;1.63;;;;;;;;;;5110333;28;20481;-58
2023/12/29 04:28:08;;;;;;;9.27;1.85;;;;;;;;;;5107983;28;20045;-58
2023/12/29 04:30:34;;;;;;;10.75;2.15;;;;;;;;;;5107461;28;20471;-58
2023/12/29 04:33:00;;;;;;;8.30;1.80;;;;;;;;;;5109242;28;20027;-56
2023/12/29 04:35:25;;;;;;;6.90;2.42;;;;;;;;;;5110636;28;20073;-56
2023/12/29 04:37:51;;;;;;;4.28;1.50;;;;;;;;;;5110123;28;20081;-57
2023/12/29 04:40:17;;;;;;;6.80;2.35;;;;;;;;;;5109167;28;20039;-56
2023/12/29 04:42:42;;;;;;;4.93;1.60;;;;;;;;;;5110196;28;20034;-54
2023/12/29 04:45:08;;;;;;;3.75;1.48;;;;;;;;;;5110859;28;20107;-58
2023/12/29 04:47:34;;;;;;;5.78;1.60;;;;;;;;;;5111470;28;20533;-58
2023/12/29 04:49:59;;;;;;;9.43;2.38;;;;;;;;;;5111356;28;20027;-59
2023/12/29 04:52:24;;;;;;;4.30;1.60;;;;;;;;;;5106399;28;20073;-59
2023/12/29 04:54:50;;;;;;;7.32;1.85;;;;;;;;;;5111331;28;20360;-59
2023/12/29 04:57:15;;;;;;;6.60;2.03;;;;;;;;;;5110175;28;20035;-59
2023/12/29 04:59:40;;;;;;;3.97;1.52;;;;;;;;;;5111508;28;20527;-60
2023/12/29 05:02:06;;;;;;;5.65;1.60;;;;;;;;;;5107875;28;20032;-59
2023/12/29 05:04:31;;;;;;;8.55;2.20;;;;;;;;;;5105724;28;20035;-60
2023/12/29 05:06:57;;;;;;;4.28;1.80;;;;;;;;;;5111397;28;20414;-60
2023/12/29 05:09:22;;;;;;;5.93;2.00;;;;;;;;;;5110153;28;20032;-60
2023/12/29 05:11:48;;;;;;;5.65;1.63;;;;;;;;;;5109841;28;20080;-60
2023/12/29 05:14:13;;;;;;;7.63;1.83;;;;;;;;;;5111877;28;20027;-59
2023/12/29 05:16:39;;;;;;;7.65;1.92;;;;;;;;;;5111120;28;20040;-59
2023/12/29 05:19:04;;;;;;;3.83;1.70;;;;;;;;;;5110521;28;20055;-59
2023/12/29 05:21:30;;;;;;;3.95;1.70;;;;;;;;;;5099513;28;20076;-60
2023/12/29 05:23:56;;;;;;;7.68;1.88;;;;;;;;;;5102494;28;20031;-62
2023/12/29 05:26:21;;;;;;;6.22;2.00;;;;;;;;;;5109799;28;20114;-60
2023/12/29 05:28:47;;;;;;;8.50;1.95;;;;;;;;;;5102748;28;20506;-60
2023/12/29 05:31:12;;;;;;;4.35;1.60;;;;;;;;;;5108539;28;20038;-60
2023/12/29 05:33:37;;;;;;;6.97;1.55;;;;;;;;;;5110450;28;20039;-61
2023/12/29 05:36:08;;;;;;;7.95;1.70;;;;;;;;;;5094504;28;20144;-60
2023/12/29 05:38:33;;;;;;;6.68;1.63;;;;;;;;;;5112292;28;20028;-60
2023/12/29 05:41:01;;;;;;;9.15;2.10;;;;;;;;;;5107582;28;20039;-61
2023/12/29 05:43:26;;;;;;;5.80;1.50;;;;;;;;;;5110250;28;20122;-60
2023/12/29 05:45:52;;;;;;;5.63;1.95;;;;;;;;;;5110759;28;20379;-60
2023/12/29 05:48:17;;;;;;;7.55;1.70;;;;;;;;;;5109341;28;20459;-60
2023/12/29 05:50:43;;;;;;;2.67;1.33;;;;;;;;;;5105024;28;20470;-60
2023/12/29 05:53:08;;;;;;;5.82;2.00;;;;;;;;;;5109778;28;20028;-59
2023/12/29 05:55:33;;;;;;;7.97;1.67;;;;;;;;;;5108878;28;20380;-60
2023/12/29 05:57:59;;;;;;;5.25;1.70;;;;;;;;;;5110410;28;20027;-60
2023/12/29 06:00:24;;;;;;;6.85;1.70;;;;;;;;;;5109475;28;20035;-60
2023/12/29 06:02:49;;;;;;;6.47;1.67;;;;;;;;;;5094723;28;20040;-60
2023/12/29 06:05:15;;;;;;;11.05;2.10;;;;;;;;;;5105477;28;20054;-60
2023/12/29 06:07:41;;;;;;;4.80;1.60;;;;;;;;;;5091821;28;20359;-60
2023/12/29 06:10:08;;;;;;;7.72;1.48;;;;;;;;;;5104190;28;20031;-59
2023/12/29 06:12:33;;;;;;;11.02;2.20;;;;;;;;;;5108872;28;20043;-60
2023/12/29 06:14:58;;;;;;;9.80;1.90;;;;;;;;;;5110779;28;20383;-60
2023/12/29 06:17:24;;;;;;;4.35;1.60;;;;;;;;;;5113399;28;20122;-60
2023/12/29 06:19:49;;;;;;;4.40;1.60;;;;;;;;;;5114506;28;20035;-60
2023/12/29 06:22:15;;;;;;;6.30;1.65;;;;;;;;;;5108785;28;20048;-60
2023/12/29 06:24:41;;;;;;;4.47;1.63;;;;;;;;;;5099759;28;20023;-60
2023/12/29 06:27:08;;;;;;;4.68;1.70;;;;;;;;;;5107056;28;20036;-60
2023/12/29 06:29:34;;;;;;;10.05;1.50;;;;;;;;;;5102421;28;20031;-61
2023/12/29 06:31:59;;;;;;;4.53;1.27;;;;;;;;;;5112445;28;20387;-60
2023/12/29 06:34:25;;;;;;;5.40;1.40;;;;;;;;;;5099592;28;20032;-60
2023/12/29 06:36:51;;;;;;;3.10;1.27;;;;;;;;;;5109859;28;20031;-60
2023/12/29 06:39:16;;;;;;;7.30;1.73;;;;;;;;;;5115140;28;20027;-60
2023/12/29 06:41:41;;;;;;;6.10;2.03;;;;;;;;;;5112169;28;20487;-60
2023/12/29 06:44:07;;;;;;;5.75;1.60;;;;;;;;;;5113230;28;20032;-59
2023/12/29 06:46:32;;;;;;;5.38;1.52;;;;;;;;;;5112791;28;20491;-60
2023/12/29 06:48:57;;;;;;;9.60;1.90;;;;;;;;;;5112236;28;20034;-60
2023/12/29 06:51:23;;;;;;;5.10;1.75;;;;;;;;;;5111569;28;20032;-60
2023/12/29 06:53:49;;;;;;;4.20;1.88;;;;;;;;;;5113670;28;20422;-60
2023/12/29 06:56:15;;;;;;;8.55;1.98;;;;;;;;;;5109022;28;20067;-60
2023/12/29 06:58:41;;;;;;;8.27;1.70;;;;;;;;;;5111199;28;20508;-60
2023/12/29 07:01:06;;;;;;;8.75;2.00;;;;;;;;;;5099520;28;20110;-60
2023/12/29 07:03:32;;;;;;;7.38;2.00;;;;;;;;;;5112970;28;20059;-60
2023/12/29 07:06:00;;;;;;;6.28;1.58;;;;;;;;;;5112867;28;20384;-60
2023/12/29 07:08:26;;;;;;;7.32;1.80;;;;;;;;;;5112601;28;20083;-60
2023/12/29 07:10:51;;;;;;;7.80;1.85;;;;;;;;;;5083534;28;20422;-60
2023/12/29 07:13:17;;;;;;;6.63;1.70;;;;;;;;;;5111146;28;20483;-60
2023/12/29 07:15:42;;;;;;;6.05;1.52;;;;;;;;;;5113555;28;20059;-61
2023/12/29 07:18:07;;;;;;;4.15;1.50;;;;;;;;;;5109770;28;20093;-60
2023/12/29 07:20:33;;;;;;;4.60;1.63;;;;;;;;;;5094433;28;20032;-58
2023/12/29 07:22:59;;;;;;;5.63;1.77;;;;;;;;;;5106545;28;20054;-59
2023/12/29 07:25:25;;;;;;;9.73;2.13;;;;;;;;;;5106964;28;20663;-60
2023/12/29 07:27:50;;;;;;;8.23;1.63;;;;;;;;;;5113975;28;20055;-60
2023/12/29 07:30:16;;;;;;;12.75;2.13;;;;;;;;;;5097440;28;20038;-60
2023/12/29 07:32:42;;;;;;;3.80;1.55;;;;;;;;;;5112347;28;20031;-60
2023/12/29 07:35:07;;;;;;;7.15;1.92;;;;;;;;;;5113906;28;20063;-59
2023/12/29 07:37:33;;;;;;;6.35;1.88;;;;;;;;;;5113495;28;20019;-61
2023/12/29 07:39:58;;;;;;;5.55;1.60;;;;;;;;;;5096396;28;20502;-61
2023/12/29 07:42:23;;;;;;;11.75;2.50;;;;;;;;;;5112313;28;20692;-61
2023/12/29 07:44:49;;;;;;;11.25;2.33;;;;;;;;;;5113734;28;20540;-63
2023/12/29 07:47:14;;;;;;;9.38;1.83;;;;;;;;;;5111611;28;20085;-60
2023/12/29 07:49:42;;;;;;;8.27;2.15;;;;;;;;;;5092390;28;20464;-62
2023/12/29 07:52:07;;;;;;;7.93;1.90;;;;;;;;;;5111736;28;20039;-60
2023/12/29 07:54:33;;;;;;;4.20;1.30;;;;;;;;;;5113885;28;20027;-64
2023/12/29 07:56:58;;;;;;;4.30;1.50;;;;;;;;;;5112479;28;20362;-64
2023/12/29 07:59:24;;;;;;;4.47;1.73;;;;;;;;;;5101198;28;20169;-64
2023/12/29 08:01:50;;;;;;;7.88;2.22;;;;;;;;;;5113787;28;20038;-63
2023/12/29 08:04:16;;;;;;;3.58;1.67;;;;;;;;;;5112803;28;20392;-65
2023/12/29 08:06:41;;;;;;;4.25;1.48;;;;;;;;;;5113355;28;20038;-64
2023/12/29 08:09:07;;;;;;;6.25;1.80;;;;;;;;;;5112735;28;20040;-62
2023/12/29 08:11:33;;;;;;;10.00;1.90;;;;;;;;;;5113822;28;20035;-61
2023/12/29 08:13:58;;;;;;;3.92;1.52;;;;;;;;;;5099876;28;20039;-61
2023/12/29 08:16:24;;;;;;;8.85;2.22;;;;;;;;;;5102965;28;20216;-61
2023/12/29 08:18:49;;;;;;;5.75;2.05;;;;;;;;;;5098747;28;20036;-63
2023/12/29 08:21:21;;;;;;;9.13;2.08;;;;;;;;;;5092266;28;20453;-64
2023/12/29 08:23:47;;;;;;;8.27;1.50;;;;;;;;;;5094033;28;20475;-64
2023/12/29 08:26:13;;;;;;;10.20;2.15;;;;;;;;;;5112495;28;20059;-62
2023/12/29 08:28:38;;;;;;;5.20;1.67;;;;;;;;;;5112917;28;20106;-61
2023/12/29 08:31:04;;;;;;;9.68;1.90;;;;;;;;;;5112963;28;20387;-62
2023/12/29 08:33:29;;;;;;;8.80;1.90;;;;;;;;;;5112105;28;20084;-61
2023/12/29 08:36:00;;;;;;;8.15;1.58;;;;;;;;;;5112930;28;20122;-63
2023/12/29 08:38:26;;;;;;;11.38;1.95;;;;;;;;;;5111794;28;20040;-62
2023/12/29 08:40:51;;;;;;;5.75;1.77;;;;;;;;;;5099894;28;20110;-63
2023/12/29 08:43:20;;;;;;;3.65;1.50;;;;;;;;;;5112203;28;20032;-61
2023/12/29 08:45:46;;;;;;;6.97;1.58;;;;;;;;;;5112521;28;20028;-63
2023/12/29 08:48:11;;;;;;;6.38;1.60;;;;;;;;;;5093313;28;20180;-62
2023/12/29 08:50:37;;;;;;;5.55;1.73;;;;;;;;;;5112543;28;20480;-63
2023/12/29 08:53:02;;;;;;;6.20;1.70;;;;;;;;;;5112018;28;20028;-63
2023/12/29 08:55:27;;;;;;;4.57;1.70;;;;;;;;;;5098955;28;20484;-62
2023/12/29 08:57:53;;;;;;;6.57;1.55;;;;;;;;;;5111914;28;20031;-63
2023/12/29 09:00:18;;;;;;;7.07;1.70;;;;;;;;;;5093002;28;20036;-62
2023/12/29 09:02:44;;;;;;;2.55;1.50;;;;;;;;;;5111932;28;20392;-62
2023/12/29 09:05:09;;;;;;;6.32;1.40;;;;;;;;;;5111504;28;20031;-62
2023/12/29 09:07:35;;;;;;;3.63;1.35;;;;;;;;;;5111868;28;20023;-63
2023/12/29 09:10:02;;;;;;;12.50;1.55;;;;;;;;;;5104991;28;20024;-63
2023/12/29 09:12:27;;;;;;;5.53;1.58;;;;;;;;;;5109049;28;20134;-64
2023/12/29 09:14:53;;;;;;;4.38;1.15;;;;;;;;;;5112467;28;20123;-65
2023/12/29 09:17:18;;;;;;;3.35;1.20;;;;;;;;;;5111378;28;20426;-63
2023/12/29 09:19:44;;;;;;;3.15;1.40;;;;;;;;;;5112325;28;20388;-63
2023/12/29 09:22:10;;;;;;;3.38;1.17;;;;;;;;;;5110625;28;20059;-60
2023/12/29 09:24:35;;;;;;;5.45;1.55;;;;;;;;;;5112055;28;20444;-61
2023/12/29 09:27:01;;;;;;;2.95;1.10;;;;;;;;;;5098314;28;20028;-61
2023/12/29 09:29:26;;;;;;;3.83;1.17;;;;;;;;;;5106600;28;20036;-64
2023/12/29 09:31:51;;;;;;;2.72;1.48;;;;;;;;;;5101975;28;20028;-61
2023/12/29 09:34:18;;;;;;;1.85;1.00;;;;;;;;;;5104822;28;20046;-63
2023/12/29 09:36:43;;;;;;;2.83;1.40;;;;;;;;;;5104119;28;20028;-66
2023/12/29 09:39:09;;;;;;;2.45;1.00;;;;;;;;;;5104001;28;20047;-66
2023/12/29 09:41:38;;;;;;;2.90;1.05;;;;;;;;;;5112085;28;20032;-65
2023/12/29 09:44:06;;;;;;;3.95;1.30;;;;;;;;;;5107475;28;20028;-65
2023/12/29 09:46:32;;;;;;;1.95;0.98;;;;;;;;;;5111671;28;20088;-64
2023/12/29 09:49:03;;;;;;;3.17;1.20;;;;;;;;;;5091973;28;20567;-65
2023/12/29 09:51:29;;;;;;;1.95;0.90;;;;;;;;;;5095596;28;20039;-65
2023/12/29 09:53:57;;;;;;;10.05;1.27;;;;;;;;;;5091771;28;20465;-64
2023/12/29 09:56:23;;;;;;;0.85;0.80;;;;;;;;;;5105067;28;20036;-65
2023/12/29 09:58:51;;;;;;;3.60;1.00;;;;;;;;;;5111763;28;20085;-65
2023/12/29 10:01:18;;;;;;;3.10;1.02;;;;;;;;;;5111280;28;20107;-63
2023/12/29 10:03:44;;;;;;;1.98;1.00;;;;;;;;;;5111817;28;20028;-62
2023/12/29 10:06:13;;;;;;;1.98;1.10;;;;;;;;;;5086211;28;20036;-63
2023/12/29 10:08:45;;;;;;;2.63;1.00;;;;;;;;;;5096487;28;20090;-60
2023/12/29 10:11:11;;;;;;;2.72;1.15;;;;;;;;;;5110786;28;20020;-60
2023/12/29 10:13:39;;;;;;;2.47;1.17;;;;;;;;;;5112106;28;20061;-60
2023/12/29 10:16:11;;;;;;;1.30;1.10;;;;;;;;;;5111848;28;20084;-60
2023/12/29 10:18:36;;;;;;;2.47;1.00;;;;;;;;;;5099384;28;20036;-61
2023/12/29 10:21:19;;;;;;;2.55;0.90;;;;;;;;;;5095839;28;20047;-62
2023/12/29 10:23:52;;;;;;;2.30;0.95;;;;;;;;;;5110770;28;20035;-61
2023/12/29 10:26:19;;;;;;;1.55;1.00;;;;;;;;;;5111082;28;20040;-61
2023/12/29 10:28:47;;;;;;;1.20;0.90;;;;;;;;;;5110984;28;20054;-62
2023/12/29 10:31:16;;;;;;;1.90;1.08;;;;;;;;;;5089093;28;20036;-62
2023/12/29 10:33:41;;;;;;;2.40;0.90;;;;;;;;;;5094243;28;20027;-61
2023/12/29 10:36:08;;;;;;;1.85;1.27;;;;;;;;;;5109771;28;20096;-60
2023/12/29 10:38:34;;;;;;;0.88;0.80;;;;;;;;;;5092819;28;20047;-61
2023/12/29 10:41:16;;;;;;;1.20;1.10;;;;;;;;;;5111464;28;20039;-62
2023/12/29 10:43:43;;;;;;;1.65;1.10;;;;;;;;;;5111650;28;20482;-61
2023/12/29 10:46:10;;;;;;;2.65;1.00;;;;;;;;;;5095595;28;20047;-60
2023/12/29 10:48:36;;;;;;;1.77;0.82;;;;;;;;;;5090962;28;20032;-60
2023/12/29 10:51:05;;;;;;;1.67;0.90;;;;;;;;;;5100774;28;20038;-62
2023/12/29 10:53:32;;;;;;;0.88;0.70;;;;;;;;;;5109457;28;20039;-62
2023/12/29 10:56:00;;;;;;;0.80;0.80;;;;;;;;;;5110843;28;20360;-61
2023/12/29 10:58:31;;;;;;;1.73;0.95;;;;;;;;;;5110367;28;20076;-61
2023/12/29 11:01:02;;;;;;;1.83;1.05;;;;;;;;;;5111687;28;20114;-61
2023/12/29 11:03:27;;;;;;;4.70;1.23;;;;;;;;;;5114744;28;20677;-61
2023/12/29 11:06:02;;;;;;;1.85;1.13;;;;;;;;;;5114759;28;20114;-61
2023/12/29 11:08:27;;;;;;;4.20;1.30;;;;;;;;;;5113825;28;20197;-61
2023/12/29 11:10:56;;;;;;;2.50;1.30;;;;;;;;;;5114494;28;20378;-61
2023/12/29 11:13:22;;;;;;;2.03;1.35;;;;;;;;;;5114039;28;20468;-63
2023/12/29 11:15:48;;;;;;;1.67;0.85;;;;;;;;;;5114990;28;20077;-65
2023/12/29 11:18:15;;;;;;;2.63;1.20;;;;;;;;;;5113933;28;20049;-62
2023/12/29 11:20:42;;;;;;;1.20;0.98;;;;;;;;;;5109112;28;20062;-62
2023/12/29 11:23:09;;;;;;;3.30;1.80;;;;;;;;;;5075676;28;20516;-62
2023/12/29 11:25:35;;;;;;;2.50;1.13;;;;;;;;;;5093841;28;20035;-62
2023/12/29 11:28:01;;;;;;;2.00;1.23;;;;;;;;;;5094348;28;20031;-62
2023/12/29 11:30:27;;;;;;;2.55;1.50;;;;;;;;;;5086857;28;20093;-61
2023/12/29 11:33:18;;;;;;;4.05;1.20;;;;;;;;;;5106069;28;20032;-61
2023/12/29 11:35:46;;;;;;;;;;;;;;;;;;5084372;28;20096;-61
2023/12/29 11:38:26;;;;;;;3.47;1.40;;;;;;;;;;5113268;28;19908;-62
2023/12/29 11:40:56;;;;;;;2.53;0.90;;;;;;;;;;5095279;28;20507;-61
2023/12/29 11:43:22;;;;;;;4.60;1.30;;;;;;;;;;5101141;28;20031;-63
2023/12/29 11:45:49;;;;;;;0.90;0.90;;;;;;;;;;5094356;28;20529;-61
2023/12/29 11:49:03;;;;;;;0.77;0.77;;;;;;;;;;5108052;28;20032;-61
2023/12/29 11:51:35;;;;;;;1.30;0.90;;;;;;;;;;5102085;28;20127;-62
2023/12/29 11:54:05;;;;;;;2.63;1.08;;;;;;;;;;5113812;28;20059;-62
2023/12/29 11:56:41;;;;;;;1.73;1.05;;;;;;;;;;5113518;28;20053;-62
2023/12/29 11:59:19;;;;;;;5.88;1.50;;;;;;;;;;5112269;28;20023;-60
2023/12/29 12:01:57;;;;;;;3.00;1.15;;;;;;;;;;5113789;28;20108;-62
2023/12/29 12:04:44;;;;;;;3.08;1.30;;;;;;;;;;5112916;28;20073;-62
2023/12/29 12:07:21;;;;;;;3.70;1.50;;;;;;;;;;5112908;28;20167;-60
2023/12/29 12:09:49;;;;;;;2.03;1.60;;;;;;;;;;5105381;28;20527;-62
2023/12/29 12:12:41;;;;;;;2.63;1.50;;;;;;;;;;5111596;28;20028;-63
2023/12/29 12:15:31;;;;;;;2.33;1.30;;;;;;;;;;5095169;28;20028;-61
2023/12/29 12:18:00;;;;;;;4.75;2.13;;;;;;;;;;5113813;28;20023;-61
2023/12/29 12:20:28;;;;;;;4.25;1.55;;;;;;;;;;5094228;28;20031;-62
2023/12/29 12:23:01;;;;;;;4.80;1.50;;;;;;;;;;5113398;28;20383;-61
2023/12/29 12:25:29;;;;;;;4.15;1.27;;;;;;;;;;5110004;28;20032;-61
2023/12/29 12:27:58;;;;;;;3.38;1.40;;;;;;;;;;5093900;28;20035;-63
2023/12/29 12:30:24;;;;;;;4.43;1.50;;;;;;;;;;5105071;28;20069;-63
2023/12/29 12:33:02;;;;;;;2.03;1.33;;;;;;;;;;5093635;28;20539;-62
2023/12/29 12:35:28;;;;;;;7.13;1.63;;;;;;;;;;5092133;28;20609;-62
2023/12/29 12:38:24;;;;;;;5.13;1.60;;;;;;;;;;5092585;28;20096;-62
2023/12/29 12:40:50;;;;;;;3.88;1.67;;;;;;;;;;5090117;28;20047;-61
2023/12/29 12:43:16;;;;;;;2.38;1.48;;;;;;;;;;5112519;28;20031;-61
2023/12/29 12:45:52;;;;;;;2.67;1.73;;;;;;;;;;5112491;28;20039;-62
2023/12/29 12:48:23;;;;;;;2.17;1.40;;;;;;;;;;5091632;28;20070;-62
2023/12/29 12:50:49;;;;;;;3.38;1.60;;;;;;;;;;5092200;28;20031;-62
2023/12/29 12:53:20;;;;;;;3.80;1.42;;;;;;;;;;5091379;28;20028;-61
2023/12/29 12:55:48;;;;;;;2.85;1.40;;;;;;;;;;5110870;28;20108;-62
2023/12/29 12:58:14;;;;;;;3.67;1.38;;;;;;;;;;5106125;28;20094;-62
2023/12/29 13:00:40;;;;;;;9.32;1.60;;;;;;;;;;5107981;28;20032;-61
2023/12/29 13:03:06;;;;;;;3.10;1.35;;;;;;;;;;5091727;28;20494;-61
2023/12/29 13:05:31;;;;;;;2.75;1.30;;;;;;;;;;5104571;28;20023;-62
2023/12/29 13:07:57;;;;;;;2.55;1.20;;;;;;;;;;5110801;28;20024;-60
2023/12/29 13:10:22;;;;;;;2.80;1.02;;;;;;;;;;5100932;28;20023;-59
2023/12/29 13:12:54;;;;;;;2.75;1.15;;;;;;;;;;5110152;28;20385;-61
2023/12/29 13:15:20;;;;;;;3.58;0.90;;;;;;;;;;5111481;28;20400;-62
2023/12/29 13:17:52;;;;;;;1.85;1.00;;;;;;;;;;5111678;28;20028;-63
2023/12/29 13:20:18;;;;;;;1.27;1.00;;;;;;;;;;5111618;28;20096;-62
2023/12/29 13:22:44;;;;;;;1.30;0.88;;;;;;;;;;5094058;28;20483;-62
2023/12/29 13:25:10;;;;;;;5.68;1.45;;;;;;;;;;5112174;28;20488;-61
2023/12/29 13:27:39;;;;;;;1.38;1.05;;;;;;;;;;5111765;28;20023;-62
2023/12/29 13:30:05;;;;;;;1.90;1.10;;;;;;;;;;5107793;28;20086;-63
2023/12/29 13:32:30;;;;;;;1.48;0.85;;;;;;;;;;5097158;28;20395;-63
2023/12/29 13:35:08;;;;;;;0.70;0.70;;;;;;;;;;5112206;28;20490;-62
2023/12/29 13:37:54;;;;;;;2.25;0.88;;;;;;;;;;5111266;28;20089;-62
2023/12/29 13:40:38;;;;;;;2.20;1.65;;;;;;;;;;5111227;28;20084;-63
2023/12/29 13:43:08;;;;;;;5.97;1.60;;;;;;;;;;5112213;28;20070;-62
2023/12/29 13:45:36;;;;;;;1.77;1.60;;;;;;;;;;5111446;28;20126;-62
2023/12/29 13:48:02;;;;;;;3.22;1.63;;;;;;;;;;5111554;28;20293;-62
2023/12/29 13:50:27;;;;;;;2.15;1.52;;;;;;;;;;5111000;28;20118;-64
2023/12/29 13:52:53;;;;;;;4.15;1.80;;;;;;;;;;5112089;28;20062;-63
2023/12/29 13:55:23;;;;;;;6.18;2.00;;;;;;;;;;5111229;28;20028;-62
2023/12/29 13:57:48;;;;;;;3.08;1.98;;;;;;;;;;5112094;28;20469;-63
2023/12/29 14:00:13;;;;;;;6.15;2.67;;;;;;;;;;5093166;28;20164;-61
2023/12/29 14:02:39;;;;;;;4.78;1.90;;;;;;;;;;5111126;28;20103;-63
2023/12/29 14:05:55;;;;;;;3.50;1.52;;;;;;;;;;5111814;28;20039;-62
2023/12/29 14:08:36;;;;;;;3.72;1.60;;;;;;;;;;5076251;28;20067;-63
2023/12/29 14:11:07;;;;;;;4.10;2.03;;;;;;;;;;5111442;28;20387;-64
2023/12/29 14:13:33;;;;;;;4.32;1.90;;;;;;;;;;5109522;28;20032;-62
2023/12/29 14:15:58;;;;;;;3.88;1.70;;;;;;;;;;5112299;28;20027;-62
2023/12/29 14:18:32;;;;;;;7.30;1.63;;;;;;;;;;5111299;28;20036;-62
2023/12/29 14:20:58;;;;;;;4.53;1.30;;;;;;;;;;5111551;28;20051;-62
2023/12/29 14:23:24;;;;;;;1.15;1.05;;;;;;;;;;5111075;28;20028;-61
2023/12/29 14:25:49;;;;;;;1.38;0.93;;;;;;;;;;5093796;28;20027;-61
2023/12/29 14:28:19;;;;;;;1.90;1.08;;;;;;;;;;5110112;28;20478;-61
2023/12/29 14:30:45;;;;;;;3.55;1.45;;;;;;;;;;5101226;28;20049;-61
2023/12/29 14:33:11;;;;;;;2.38;1.40;;;;;;;;;;5091651;28;20128;-61
2023/12/29 14:35:36;;;;;;;3.80;1.88;;;;;;;;;;5090599;28;20476;-61
2023/12/29 14:38:02;;;;;;;5.22;2.13;;;;;;;;;;5094819;28;20110;-61
2023/12/29 14:40:28;;;;;;;5.75;2.33;;;;;;;;;;5094343;28;20460;-62
2023/12/29 14:42:53;;;;;;;4.05;2.30;;;;;;;;;;5104373;28;20032;-61
2023/12/29 14:45:22;;;;;;;5.53;2.70;;;;;;;;;;5114632;28;20027;-62